createdAt,value
2023-04-28T00:01:24.013Z,6.90
2023-04-28T00:03:50.602Z,10.73
2023-04-28T00:06:17.173Z,9.60
2023-04-28T00:08:43.639Z,7.33
2023-04-28T00:11:11.006Z,7.77
2023-04-28T00:13:38.249Z,7.07
2023-04-28T00:16:05.079Z,10.80
2023-04-28T00:18:33.139Z,9.93
2023-04-28T00:21:00.141Z,6.07
2023-04-28T00:23:26.671Z,9.10
2023-04-28T00:25:53.460Z,8.90
2023-04-28T00:28:32.962Z,10.63
2023-04-28T00:31:00.464Z,8.37
2023-04-28T00:33:26.916Z,10.70
2023-04-28T00:36:00.997Z,6.20
2023-04-28T00:38:27.607Z,8.10
2023-04-28T00:40:54.224Z,8.10
2023-04-28T00:43:20.686Z,7.27
2023-04-28T00:45:47.252Z,5.43
2023-04-28T00:48:14.224Z,6.53
2023-04-28T00:50:40.900Z,7.73
2023-04-28T00:53:08.031Z,6.10
2023-04-28T00:55:35.266Z,9.43
2023-04-28T00:58:02.475Z,12.47
2023-04-28T01:00:29.387Z,5.40
2023-04-28T01:02:57.524Z,10.67
2023-04-28T01:05:29.326Z,5.90
2023-04-28T01:07:56.724Z,7.23
2023-04-28T01:10:23.307Z,5.87
2023-04-28T01:12:50.097Z,7.50
2023-04-28T01:15:18.532Z,8.30
2023-04-28T01:17:47.365Z,8.00
2023-04-28T01:20:14.775Z,8.57
2023-04-28T01:22:42.208Z,9.60
2023-04-28T01:25:09.357Z,6.03
2023-04-28T01:27:35.895Z,7.03
2023-04-28T01:30:02.610Z,6.63
2023-04-28T01:32:29.173Z,7.43
2023-04-28T01:34:56.217Z,8.50
2023-04-28T01:37:22.791Z,6.53
2023-04-28T01:39:49.238Z,6.53
2023-04-28T01:42:15.823Z,8.70
2023-04-28T01:44:42.342Z,8.50
2023-04-28T01:47:11.054Z,7.53
2023-04-28T01:49:37.495Z,7.50
2023-04-28T01:52:04.144Z,12.23
2023-04-28T01:54:30.817Z,7.63
2023-04-28T01:56:57.442Z,8.53
2023-04-28T01:59:25.419Z,7.23
2023-04-28T02:01:52.970Z,8.33
2023-04-28T02:04:19.644Z,6.83
2023-04-28T02:06:46.487Z,8.63
2023-04-28T02:09:13.010Z,5.30
2023-04-28T02:11:39.500Z,8.70
2023-04-28T02:14:05.973Z,5.90
2023-04-28T02:16:33.597Z,10.10
2023-04-28T02:19:00.590Z,7.37
2023-04-28T02:21:27.942Z,6.80
2023-04-28T02:23:54.408Z,6.83
2023-04-28T02:26:20.961Z,10.53
2023-04-28T02:28:51.287Z,9.70
2023-04-28T02:31:17.855Z,8.67
2023-04-28T02:33:45.635Z,7.07
2023-04-28T02:36:12.266Z,5.63
2023-04-28T02:38:41.398Z,8.57
2023-04-28T02:41:09.174Z,6.40
2023-04-28T02:43:37.195Z,6.00
2023-04-28T02:46:04.403Z,9.20
2023-04-28T02:48:30.937Z,6.00
2023-04-28T02:50:57.590Z,7.00
2023-04-28T02:53:24.053Z,7.33
2023-04-28T02:55:50.638Z,5.80
2023-04-28T02:58:18.124Z,6.83
2023-04-28T03:00:45.438Z,5.60
2023-04-28T03:03:12.462Z,7.00
2023-04-28T03:05:39.079Z,8.33
2023-04-28T03:08:06.178Z,8.37
2023-04-28T03:10:32.859Z,5.70
2023-04-28T03:13:00.687Z,7.67
2023-04-28T03:15:27.629Z,8.90
2023-04-28T03:17:54.202Z,8.80
2023-04-28T03:20:20.734Z,7.23
2023-04-28T03:22:47.204Z,6.27
2023-04-28T03:25:13.736Z,6.57
2023-04-28T03:27:51.023Z,6.70
2023-04-28T03:30:17.559Z,7.47
2023-04-28T03:32:44.015Z,7.00
2023-04-28T03:35:10.726Z,11.30
2023-04-28T03:37:38.751Z,6.57
2023-04-28T03:40:06.374Z,7.50
2023-04-28T03:42:47.336Z,7.90
2023-04-28T03:45:22.831Z,7.60
2023-04-28T03:47:49.369Z,10.67
2023-04-28T03:50:16.017Z,5.53
2023-04-28T03:52:42.555Z,7.90
2023-04-28T03:55:09.746Z,7.67
2023-04-28T03:57:36.336Z,7.20
2023-04-28T04:00:03.058Z,9.10
2023-04-28T04:02:31.228Z,7.50
2023-04-28T04:04:58.108Z,12.00
2023-04-28T04:07:24.861Z,8.53
2023-04-28T04:09:51.434Z,8.93
2023-04-28T04:12:18.651Z,9.00
2023-04-28T04:14:45.215Z,8.93
2023-04-28T04:17:12.122Z,6.90
2023-04-28T04:19:38.652Z,7.70
2023-04-28T04:22:05.115Z,8.60
2023-04-28T04:24:31.817Z,7.63
2023-04-28T04:26:58.293Z,9.40
2023-04-28T04:29:37.443Z,10.10
2023-04-28T04:32:10.262Z,7.50
2023-04-28T04:34:37.573Z,6.63
2023-04-28T04:37:04.407Z,10.50
2023-04-28T04:39:31.176Z,9.57
2023-04-28T04:41:57.734Z,8.10
2023-04-28T04:44:35.067Z,8.10
2023-04-28T04:47:02.499Z,6.80
2023-04-28T04:49:30.149Z,8.50
2023-04-28T04:51:56.616Z,9.97
2023-04-28T04:54:24.092Z,9.40
2023-04-28T04:56:51.258Z,9.37
2023-04-28T04:59:28.163Z,9.90
2023-04-28T05:02:01.074Z,7.93
2023-04-28T05:04:28.381Z,7.87
2023-04-28T05:06:55.173Z,10.33
2023-04-28T05:09:23.052Z,8.67
2023-04-28T05:11:49.534Z,8.20
2023-04-28T05:14:17.400Z,6.60
2023-04-28T05:16:44.644Z,7.37
2023-04-28T05:19:23.627Z,10.07
2023-04-28T05:21:52.571Z,7.70
2023-04-28T05:24:23.175Z,8.47
2023-04-28T05:26:51.715Z,8.57
2023-04-28T05:29:19.667Z,9.10
2023-04-28T05:31:46.538Z,7.87
2023-04-28T05:34:13.990Z,9.37
2023-04-28T05:36:41.661Z,9.40
2023-04-28T05:39:10.891Z,9.03
2023-04-28T05:41:39.066Z,10.20
2023-04-28T05:44:06.142Z,15.87
2023-04-28T05:46:33.510Z,8.27
2023-04-28T05:49:00.873Z,10.40
2023-04-28T05:51:33.644Z,9.53
2023-04-28T05:54:00.217Z,6.73
2023-04-28T05:56:28.502Z,15.20
2023-04-28T05:58:56.025Z,7.60
2023-04-28T06:01:22.859Z,10.63
2023-04-28T06:03:49.832Z,7.13
2023-04-28T06:06:16.999Z,7.87
2023-04-28T06:08:43.523Z,7.97
2023-04-28T06:11:09.960Z,7.07
2023-04-28T06:13:36.504Z,7.70
2023-04-28T06:16:03.543Z,7.17
2023-04-28T06:18:32.492Z,8.17
2023-04-28T06:21:00.981Z,10.57
2023-04-28T06:23:27.503Z,8.97
2023-04-28T06:25:54.304Z,11.83
2023-04-28T06:28:20.752Z,8.50
2023-04-28T06:30:47.267Z,7.57
2023-04-28T06:33:13.728Z,9.90
2023-04-28T06:35:40.377Z,7.60
2023-04-28T06:38:07.361Z,7.97
2023-04-28T06:40:33.791Z,14.37
2023-04-28T06:43:01.880Z,8.00
2023-04-28T06:45:36.055Z,6.97
2023-04-28T06:48:02.642Z,8.80
2023-04-28T06:50:29.185Z,6.50
2023-04-28T06:52:55.716Z,8.73
2023-04-28T06:55:22.294Z,5.93
2023-04-28T06:57:49.731Z,6.90
2023-04-28T07:00:16.969Z,7.17
2023-04-28T07:02:43.582Z,6.90
2023-04-28T07:05:10.322Z,8.00
2023-04-28T07:07:38.635Z,8.17
2023-04-28T07:10:06.468Z,7.13
2023-04-28T07:12:32.937Z,10.93
2023-04-28T07:14:59.429Z,8.60
2023-04-28T07:17:25.880Z,6.43
2023-04-28T07:19:52.352Z,9.43
2023-04-28T07:22:18.871Z,7.90
2023-04-28T07:24:45.526Z,8.27
2023-04-28T07:27:12.694Z,8.67
2023-04-28T07:29:39.149Z,8.33
2023-04-28T07:32:08.171Z,7.63
2023-04-28T07:34:35.911Z,6.27
2023-04-28T07:37:03.540Z,6.60
2023-04-28T07:39:31.981Z,7.00
2023-04-28T07:41:59.025Z,8.57
2023-04-28T07:44:25.850Z,5.97
2023-04-28T07:46:53.361Z,7.57
2023-04-28T07:49:20.084Z,6.50
2023-04-28T07:51:47.155Z,11.50
2023-04-28T07:54:15.679Z,7.63
2023-04-28T07:56:42.318Z,6.33
2023-04-28T07:59:09.504Z,5.87
2023-04-28T08:01:36.120Z,7.83
2023-04-28T08:04:02.808Z,5.80
2023-04-28T08:06:29.425Z,7.03
2023-04-28T08:08:55.997Z,8.20
2023-04-28T08:11:22.671Z,6.57
2023-04-28T08:13:49.493Z,6.13
2023-04-28T08:16:16.253Z,8.00
2023-04-28T08:18:43.354Z,8.40
2023-04-28T08:21:09.913Z,5.50
2023-04-28T08:23:36.358Z,7.47
2023-04-28T08:26:03.006Z,6.67
2023-04-28T08:28:29.442Z,5.97
2023-04-28T08:30:56.155Z,7.10
2023-04-28T08:33:23.895Z,5.37
2023-04-28T08:35:51.055Z,5.20
2023-04-28T08:38:18.175Z,7.40
2023-04-28T08:40:44.890Z,5.93
2023-04-28T08:43:11.547Z,8.27
2023-04-28T08:45:42.944Z,6.93
2023-04-28T08:48:22.496Z,7.17
2023-04-28T08:50:54.567Z,5.27
2023-04-28T08:53:25.529Z,6.30
2023-04-28T08:55:57.278Z,9.80
2023-04-28T08:58:25.241Z,5.30
2023-04-28T09:00:52.475Z,7.00
2023-04-28T09:03:19.672Z,7.77
2023-04-28T09:05:46.616Z,6.40
2023-04-28T09:08:13.407Z,5.80
2023-04-28T09:10:40.475Z,5.87
2023-04-28T09:13:07.375Z,5.87
2023-04-28T09:15:36.493Z,6.50
2023-04-28T09:18:05.314Z,6.47
2023-04-28T09:20:32.982Z,8.00
2023-04-28T09:23:20.139Z,5.77
2023-04-28T09:25:58.087Z,6.00
2023-04-28T09:28:25.063Z,9.47
2023-04-28T09:30:51.571Z,5.37
2023-04-28T09:33:18.126Z,8.33
2023-04-28T09:35:48.584Z,4.97
2023-04-28T09:38:16.027Z,6.37
2023-04-28T09:40:52.626Z,6.10
2023-04-28T09:43:29.551Z,7.03
2023-04-28T09:45:57.757Z,6.43
2023-04-28T09:48:34.615Z,6.77
2023-04-28T09:51:03.379Z,7.30
2023-04-28T09:53:30.630Z,5.07
2023-04-28T09:55:58.486Z,5.77
2023-04-28T09:58:26.298Z,6.07
2023-04-28T10:00:55.181Z,6.17
2023-04-28T10:03:29.160Z,5.87
2023-04-28T10:06:00.330Z,5.37
2023-04-28T10:08:27.812Z,7.00
2023-04-28T10:10:54.789Z,5.73
2023-04-28T10:13:22.665Z,5.40
2023-04-28T10:15:50.358Z,5.40
2023-04-28T10:18:17.149Z,7.13
2023-04-28T10:20:49.659Z,6.13
2023-04-28T10:23:58.174Z,6.63
2023-04-28T10:26:36.152Z,6.37
2023-04-28T10:29:02.623Z,6.93
2023-04-28T10:31:29.901Z,6.27
2023-04-28T10:33:56.493Z,5.93
2023-04-28T10:36:48.940Z,8.47
2023-04-28T10:39:15.422Z,6.23
2023-04-28T10:41:41.900Z,6.63
2023-04-28T10:44:30.135Z,7.33
2023-04-28T10:47:02.819Z,6.87
2023-04-28T10:50:01.257Z,6.40
2023-04-28T10:52:33.514Z,6.93
2023-04-28T10:55:28.732Z,22.30
2023-04-28T10:58:16.803Z,10.23
2023-04-28T11:00:45.382Z,7.70
2023-04-28T11:03:51.815Z,9.50
2023-04-28T11:06:27.093Z,8.00
2023-04-28T11:09:01.799Z,7.87
2023-04-28T11:11:29.617Z,8.47
2023-04-28T11:14:18.884Z,6.90
2023-04-28T11:17:04.384Z,8.30
2023-04-28T11:19:36.567Z,8.97
2023-04-28T11:22:13.600Z,8.90
2023-04-28T11:24:40.132Z,9.60
2023-04-28T11:27:06.707Z,7.20
2023-04-28T11:29:38.374Z,7.97
2023-04-28T11:32:10.057Z,10.30
2023-04-28T11:34:37.393Z,9.07
2023-04-28T11:37:05.804Z,11.30
2023-04-28T11:39:33.642Z,8.33
2023-04-28T11:42:02.230Z,9.17
2023-04-28T11:44:30.613Z,10.10
2023-04-28T11:47:00.778Z,12.97
2023-04-28T11:49:29.183Z,8.77
2023-04-28T11:52:04.484Z,10.07
2023-04-28T11:54:31.209Z,9.23
2023-04-28T11:57:01.118Z,13.47
2023-04-28T11:59:29.454Z,9.43
2023-04-28T12:02:01.684Z,8.97
2023-04-28T12:04:40.676Z,11.30
2023-04-28T12:07:12.527Z,10.27
2023-04-28T12:09:41.540Z,9.63
2023-04-28T12:12:17.153Z,12.73
2023-04-28T12:15:01.361Z,9.00
2023-04-28T12:17:31.577Z,10.00
2023-04-28T12:19:59.382Z,10.00
2023-04-28T12:22:26.390Z,11.20
2023-04-28T12:25:22.263Z,11.67
2023-04-28T12:28:03.170Z,9.80
2023-04-28T12:30:31.905Z,14.97
2023-04-28T12:32:58.454Z,11.67
2023-04-28T12:35:26.509Z,14.63
2023-04-28T12:37:53.727Z,10.03
2023-04-28T12:40:20.381Z,14.43
2023-04-28T12:42:47.025Z,13.00
2023-04-28T12:45:14.091Z,11.87
2023-04-28T12:47:40.648Z,12.00
2023-04-28T12:50:08.001Z,15.47
2023-04-28T12:52:35.607Z,13.57
2023-04-28T12:55:02.828Z,15.37
2023-04-28T12:57:29.581Z,12.60
2023-04-28T12:59:57.093Z,12.33
2023-04-28T13:02:24.135Z,12.57
2023-04-28T13:04:52.073Z,14.50
2023-04-28T13:07:19.170Z,11.63
2023-04-28T13:09:47.239Z,11.73
2023-04-28T13:12:14.678Z,12.90
2023-04-28T13:14:41.444Z,13.73
2023-04-28T13:17:08.266Z,13.13
2023-04-28T13:19:35.016Z,13.30
2023-04-28T13:22:03.562Z,13.07
2023-04-28T13:24:30.092Z,14.47
2023-04-28T13:26:56.764Z,18.00
2023-04-28T13:29:23.375Z,13.73
2023-04-28T13:31:49.953Z,13.93
2023-04-28T13:34:17.846Z,12.40
2023-04-28T13:36:45.078Z,13.67
2023-04-28T13:39:13.520Z,12.70
2023-04-28T13:41:40.338Z,15.07
2023-04-28T13:44:06.905Z,12.97
2023-04-28T13:46:33.814Z,13.93
2023-04-28T13:49:00.324Z,21.30
2023-04-28T13:51:28.651Z,15.37
2023-04-28T13:53:55.306Z,13.17
2023-04-28T13:56:21.917Z,12.30
2023-04-28T13:58:48.365Z,11.63
2023-04-28T14:01:14.992Z,12.53
2023-04-28T14:03:41.813Z,10.90
2023-04-28T14:06:08.474Z,13.10
2023-04-28T14:08:34.970Z,12.00
2023-04-28T14:11:01.608Z,10.10
2023-04-28T14:13:28.299Z,10.20
2023-04-28T14:15:59.154Z,11.83
2023-04-28T14:18:26.426Z,10.20
2023-04-28T14:20:54.597Z,11.30
2023-04-28T14:23:22.596Z,7.37
2023-04-28T14:25:50.004Z,10.83
2023-04-28T14:28:16.628Z,10.57
2023-04-28T14:30:43.128Z,14.43
2023-04-28T14:33:09.792Z,11.23
2023-04-28T14:35:36.316Z,10.20
2023-04-28T14:38:03.593Z,10.07
2023-04-28T14:40:30.149Z,10.67
2023-04-28T14:42:56.611Z,9.10
2023-04-28T14:45:23.347Z,10.47
2023-04-28T14:47:50.264Z,9.87
2023-04-28T14:50:16.807Z,10.80
2023-04-28T14:52:43.286Z,11.67
2023-04-28T14:55:09.785Z,11.83
2023-04-28T14:57:37.616Z,11.07
2023-04-28T15:00:07.215Z,10.93
2023-04-28T15:02:34.335Z,13.10
2023-04-28T15:05:01.254Z,11.07
2023-04-28T15:07:31.259Z,11.43
2023-04-28T15:09:59.399Z,11.87
2023-04-28T15:12:26.672Z,14.30
2023-04-28T15:14:53.813Z,10.87
2023-04-28T15:17:21.239Z,13.60
2023-04-28T15:19:47.805Z,11.27
2023-04-28T15:22:14.308Z,15.73
2023-04-28T15:24:41.238Z,10.90
2023-04-28T15:27:07.883Z,11.40
2023-04-28T15:29:34.408Z,10.87
2023-04-28T15:32:00.941Z,10.37
2023-04-28T15:34:27.448Z,13.47
2023-04-28T15:36:54.072Z,11.10
2023-04-28T15:39:20.578Z,11.00
2023-04-28T15:41:47.654Z,10.70
2023-04-28T15:44:14.409Z,9.67
2023-04-28T15:46:41.073Z,9.60
2023-04-28T15:49:08.684Z,11.73
2023-04-28T15:51:35.169Z,12.60
2023-04-28T15:54:01.642Z,10.47
2023-04-28T15:56:28.466Z,11.73
2023-04-28T15:58:54.965Z,10.67
2023-04-28T16:01:22.456Z,11.50
2023-04-28T16:03:49.145Z,10.33
2023-04-28T16:06:15.904Z,11.47
2023-04-28T16:08:42.812Z,11.73
2023-04-28T16:11:10.921Z,13.87
2023-04-28T16:13:37.516Z,11.57
2023-04-28T16:16:04.367Z,11.50
2023-04-28T16:18:31.443Z,13.43
2023-04-28T16:20:58.428Z,12.77
2023-04-28T16:23:24.872Z,12.60
2023-04-28T16:25:52.015Z,11.20
2023-04-28T16:28:18.438Z,11.57
2023-04-28T16:30:45.364Z,12.47
2023-04-28T16:33:12.481Z,12.50
2023-04-28T16:35:39.151Z,12.87
2023-04-28T16:38:05.857Z,13.40
2023-04-28T16:40:32.314Z,10.93
2023-04-28T16:42:58.822Z,11.17
2023-04-28T16:45:25.564Z,11.77
2023-04-28T16:47:51.990Z,15.03
2023-04-28T16:50:18.466Z,13.50
2023-04-28T16:52:45.032Z,13.67
2023-04-28T16:55:11.827Z,11.97
2023-04-28T16:57:38.373Z,14.53
2023-04-28T17:00:06.250Z,14.03
2023-04-28T17:02:33.322Z,14.57
2023-04-28T17:05:00.349Z,12.40
2023-04-28T17:07:27.713Z,12.90
2023-04-28T17:09:54.370Z,14.13
2023-04-28T17:12:23.154Z,14.20
2023-04-28T17:14:51.090Z,12.90
2023-04-28T17:17:18.093Z,12.97
2023-04-28T17:19:44.594Z,12.70
2023-04-28T17:22:11.774Z,13.17
2023-04-28T17:24:38.268Z,13.77
2023-04-28T17:27:04.703Z,13.30
2023-04-28T17:29:31.757Z,12.83
2023-04-28T17:31:58.316Z,13.07
2023-04-28T17:34:24.813Z,19.60
2023-04-28T17:36:51.339Z,12.73
2023-04-28T17:39:17.817Z,15.43
2023-04-28T17:41:45.095Z,13.33
2023-04-28T17:44:11.755Z,13.70
2023-04-28T17:46:38.537Z,12.83
2023-04-28T17:49:05.367Z,15.03
2023-04-28T17:51:32.433Z,14.70
2023-04-28T17:53:59.156Z,13.90
2023-04-28T17:56:26.291Z,16.13
2023-04-28T17:58:52.837Z,16.30
2023-04-28T18:01:19.557Z,14.53
2023-04-28T18:03:46.296Z,15.10
2023-04-28T18:06:13.733Z,16.93
2023-04-28T18:08:40.848Z,18.00
2023-04-28T18:11:09.905Z,15.80
2023-04-28T18:13:36.465Z,15.93
2023-04-28T18:16:04.886Z,15.97
2023-04-28T18:18:34.061Z,20.33
2023-04-28T18:21:02.327Z,14.70
2023-04-28T18:23:30.366Z,17.00
2023-04-28T18:25:56.986Z,15.57
2023-04-28T18:28:23.491Z,16.30
2023-04-28T18:30:50.132Z,15.17
2023-04-28T18:33:22.979Z,16.20
2023-04-28T18:35:58.633Z,17.10
2023-04-28T18:38:25.121Z,19.17
2023-04-28T18:40:51.550Z,15.03
2023-04-28T18:43:18.174Z,14.33
2023-04-28T18:45:44.753Z,17.27
2023-04-28T18:48:11.534Z,18.03
2023-04-28T18:50:38.247Z,18.40
2023-04-28T18:53:05.077Z,16.73
2023-04-28T18:55:34.750Z,18.80
2023-04-28T18:58:04.543Z,19.30
2023-04-28T19:00:32.319Z,15.90
2023-04-28T19:02:58.917Z,19.90
2023-04-28T19:05:25.948Z,18.70
2023-04-28T19:07:52.433Z,17.60
2023-04-28T19:10:18.963Z,16.30
2023-04-28T19:12:45.429Z,20.33
2023-04-28T19:15:11.906Z,17.57
2023-04-28T19:17:38.424Z,16.03
2023-04-28T19:20:05.735Z,17.73
2023-04-28T19:22:36.843Z,19.90
2023-04-28T19:25:04.529Z,19.23
2023-04-28T19:27:32.699Z,18.60
2023-04-28T19:29:59.894Z,21.50
2023-04-28T19:32:26.383Z,17.20
2023-04-28T19:34:53.218Z,23.70
2023-04-28T19:37:20.005Z,21.17
2023-04-28T19:39:47.239Z,26.27
2023-04-28T19:42:13.875Z,17.60
2023-04-28T19:44:40.285Z,17.53
2023-04-28T19:47:07.453Z,19.07
2023-04-28T19:49:34.488Z,18.43
2023-04-28T19:52:01.398Z,19.87
2023-04-28T19:54:28.275Z,15.93
2023-04-28T19:56:55.527Z,18.80
2023-04-28T19:59:22.353Z,16.63
2023-04-28T20:01:49.935Z,15.27
2023-04-28T20:04:16.740Z,15.53
2023-04-28T20:06:43.423Z,16.30
2023-04-28T20:09:10.088Z,16.90
2023-04-28T20:11:36.573Z,16.20
2023-04-28T20:14:03.118Z,17.83
2023-04-28T20:16:29.652Z,19.03
2023-04-28T20:18:56.153Z,17.10
2023-04-28T20:21:22.659Z,18.40
2023-04-28T20:23:49.152Z,17.07
2023-04-28T20:26:16.355Z,16.93
2023-04-28T20:28:45.438Z,17.07
2023-04-28T20:31:11.884Z,19.67
2023-04-28T20:33:38.403Z,19.77
2023-04-28T20:36:05.513Z,17.50
2023-04-28T20:38:32.218Z,22.33
2023-04-28T20:40:59.219Z,17.17
2023-04-28T20:43:29.124Z,19.97
2023-04-28T20:45:55.689Z,20.53
2023-04-28T20:48:22.149Z,16.57
2023-04-28T20:50:52.629Z,17.80
2023-04-28T20:53:19.179Z,16.93
2023-04-28T20:55:45.706Z,19.90
2023-04-28T20:58:12.203Z,19.47
2023-04-28T21:00:40.486Z,23.97
2023-04-28T21:03:07.350Z,21.63
2023-04-28T21:05:33.956Z,21.83
2023-04-28T21:08:00.435Z,19.07
2023-04-28T21:10:27.847Z,19.77
2023-04-28T21:12:54.367Z,17.30
2023-04-28T21:15:20.868Z,17.33
2023-04-28T21:17:47.460Z,18.17
2023-04-28T21:20:14.720Z,18.20
2023-04-28T21:22:41.293Z,21.50
2023-04-28T21:25:08.587Z,21.60
2023-04-28T21:27:35.040Z,23.40
2023-04-28T21:30:01.591Z,18.57
2023-04-28T21:32:28.197Z,17.83
2023-04-28T21:34:54.674Z,20.60
2023-04-28T21:37:21.250Z,17.87
2023-04-28T21:39:47.868Z,23.03
2023-04-28T21:42:14.401Z,23.90
2023-04-28T21:44:40.922Z,19.53
2023-04-28T21:47:09.124Z,19.77
2023-04-28T21:49:36.087Z,17.70
2023-04-28T21:52:02.541Z,19.13
2023-04-28T21:54:28.991Z,20.90
2023-04-28T21:56:55.588Z,17.77
2023-04-28T21:59:22.029Z,19.80
2023-04-28T22:01:48.489Z,17.80
2023-04-28T22:04:15.328Z,21.27
2023-04-28T22:06:42.182Z,19.97
2023-04-28T22:09:09.151Z,25.43
2023-04-28T22:11:35.618Z,19.43
2023-04-28T22:14:02.236Z,17.57
2023-04-28T22:16:28.726Z,18.47
2023-04-28T22:18:55.242Z,20.87
2023-04-28T22:21:21.710Z,18.20
2023-04-28T22:23:48.289Z,18.30
2023-04-28T22:26:27.476Z,17.77
2023-04-28T22:28:54.652Z,20.00
2023-04-28T22:31:21.372Z,16.67
2023-04-28T22:33:47.862Z,17.87
2023-04-28T22:36:14.384Z,21.33
2023-04-28T22:38:40.954Z,18.60
2023-04-28T22:41:07.463Z,17.70
2023-04-28T22:43:34.560Z,20.67
2023-04-28T22:46:01.084Z,22.17
2023-04-28T22:48:27.696Z,24.73
2023-04-28T22:50:54.421Z,15.97
2023-04-28T22:53:21.271Z,18.33
2023-04-28T22:55:48.676Z,17.57
2023-04-28T22:58:15.499Z,20.07
2023-04-28T23:00:42.745Z,18.30
2023-04-28T23:03:09.322Z,21.90
2023-04-28T23:05:39.072Z,15.97
2023-04-28T23:08:05.751Z,14.23
2023-04-28T23:10:32.248Z,13.60
2023-04-28T23:12:58.682Z,14.40
2023-04-28T23:15:25.308Z,16.83
2023-04-28T23:17:51.808Z,19.10
2023-04-28T23:20:18.338Z,13.97
2023-04-28T23:22:44.973Z,11.93
2023-04-28T23:25:11.593Z,11.77
2023-04-28T23:27:38.063Z,10.07
2023-04-28T23:30:04.987Z,9.43
2023-04-28T23:32:31.491Z,10.70
2023-04-28T23:34:58.004Z,12.53
2023-04-28T23:37:24.459Z,7.27
2023-04-28T23:39:51.108Z,9.20
2023-04-28T23:42:17.854Z,8.63
2023-04-28T23:44:44.293Z,9.70
2023-04-28T23:47:10.743Z,11.07
2023-04-28T23:49:37.391Z,7.13
2023-04-28T23:52:03.993Z,8.33
2023-04-28T23:54:30.688Z,9.30
2023-04-28T23:56:57.171Z,14.77
2023-04-28T23:59:23.684Z,12.93
